sensor_id;sensor_type;location;lat;lon;timestamp;pressure;altitude;pressure_sealevel;temperature;humidity
50518;BME280;37075;44.084;2.962;2024-02-21T00:00:45;98853.53;;;4.86;58.14
50518;BME280;37075;44.084;2.962;2024-02-21T00:03:31;98843.53;;;4.82;58.33
50518;BME280;37075;44.084;2.962;2024-02-21T00:06:17;98848.94;;;4.77;58.22
50518;BME280;37075;44.084;2.962;2024-02-21T00:09:05;98854.59;;;4.70;58.50
50518;BME280;37075;44.084;2.962;2024-02-21T00:11:51;98847.56;;;4.69;58.48
50518;BME280;37075;44.084;2.962;2024-02-21T00:14:37;98848.88;;;4.67;58.51
50518;BME280;37075;44.084;2.962;2024-02-21T00:17:23;98847.00;;;4.62;58.83
50518;BME280;37075;44.084;2.962;2024-02-21T00:20:11;98842.13;;;4.59;58.96
50518;BME280;37075;44.084;2.962;2024-02-21T00:22:57;98850.78;;;4.56;59.21
50518;BME280;37075;44.084;2.962;2024-02-21T00:25:45;98841.56;;;4.52;59.54
50518;BME280;37075;44.084;2.962;2024-02-21T00:28:31;98837.78;;;4.53;59.46
50518;BME280;37075;44.084;2.962;2024-02-21T00:31:17;98836.97;;;4.52;59.87
50518;BME280;37075;44.084;2.962;2024-02-21T00:34:03;98841.31;;;4.53;59.90
50518;BME280;37075;44.084;2.962;2024-02-21T00:36:49;98849.16;;;4.55;59.99
50518;BME280;37075;44.084;2.962;2024-02-21T00:39:35;98856.16;;;4.56;59.93
50518;BME280;37075;44.084;2.962;2024-02-21T00:42:23;98848.06;;;4.56;60.13
50518;BME280;37075;44.084;2.962;2024-02-21T00:45:09;98842.66;;;4.56;60.29
50518;BME280;37075;44.084;2.962;2024-02-21T00:47:56;98839.97;;;4.56;60.22
50518;BME280;37075;44.084;2.962;2024-02-21T00:50:41;98848.06;;;4.56;60.25
50518;BME280;37075;44.084;2.962;2024-02-21T00:53:27;98836.19;;;4.57;60.32
50518;BME280;37075;44.084;2.962;2024-02-21T00:56:13;98837.25;;;4.56;60.15
50518;BME280;37075;44.084;2.962;2024-02-21T00:59:00;98825.09;;;4.53;60.48
50518;BME280;37075;44.084;2.962;2024-02-21T01:01:46;98820.78;;;4.52;60.35
50518;BME280;37075;44.084;2.962;2024-02-21T01:04:32;98822.13;;;4.50;60.38
50518;BME280;37075;44.084;2.962;2024-02-21T01:07:18;98828.06;;;4.47;60.46
50518;BME280;37075;44.084;2.962;2024-02-21T01:10:04;98816.16;;;4.43;60.76
50518;BME280;37075;44.084;2.962;2024-02-21T01:12:50;98805.59;;;4.41;60.74
50518;BME280;37075;44.084;2.962;2024-02-21T01:15:37;98810.72;;;4.38;61.23
50518;BME280;37075;44.084;2.962;2024-02-21T01:18:23;98805.59;;;4.31;61.74
50518;BME280;37075;44.084;2.962;2024-02-21T01:21:09;98801.53;;;4.28;61.52
50518;BME280;37075;44.084;2.962;2024-02-21T01:23:55;98795.31;;;4.28;61.42
50518;BME280;37075;44.084;2.962;2024-02-21T01:26:41;98782.91;;;4.27;61.26
50518;BME280;37075;44.084;2.962;2024-02-21T01:29:27;98771.81;;;4.23;61.24
50518;BME280;37075;44.084;2.962;2024-02-21T01:32:14;98774.53;;;4.23;61.11
50518;BME280;37075;44.084;2.962;2024-02-21T01:35:00;98765.88;;;4.21;61.30
50518;BME280;37075;44.084;2.962;2024-02-21T01:37:46;98762.91;;;4.18;61.16
50518;BME280;37075;44.084;2.962;2024-02-21T01:40:33;98759.63;;;4.16;61.20
50518;BME280;37075;44.084;2.962;2024-02-21T01:43:20;98751.81;;;4.14;61.46
50518;BME280;37075;44.084;2.962;2024-02-21T01:46:06;98752.88;;;4.13;61.18
50518;BME280;37075;44.084;2.962;2024-02-21T01:48:54;98746.66;;;4.13;61.25
50518;BME280;37075;44.084;2.962;2024-02-21T01:51:40;98742.09;;;4.13;61.53
50518;BME280;37075;44.084;2.962;2024-02-21T01:54:26;98750.19;;;4.13;61.52
50518;BME280;37075;44.084;2.962;2024-02-21T01:57:14;98741.28;;;4.13;61.40
50518;BME280;37075;44.084;2.962;2024-02-21T02:00:01;98744.78;;;4.13;61.86
50518;BME280;37075;44.084;2.962;2024-02-21T02:02:55;98742.88;;;4.14;61.66
50518;BME280;37075;44.084;2.962;2024-02-21T02:05:45;98737.50;;;4.14;61.71
50518;BME280;37075;44.084;2.962;2024-02-21T02:08:31;98734.78;;;4.14;61.72
50518;BME280;37075;44.084;2.962;2024-02-21T02:11:18;98739.91;;;4.15;62.01
50518;BME280;37075;44.084;2.962;2024-02-21T02:14:04;98737.50;;;4.14;61.91
50518;BME280;37075;44.084;2.962;2024-02-21T02:16:50;98731.00;;;4.15;61.78
50518;BME280;37075;44.084;2.962;2024-02-21T02:19:36;98729.94;;;4.16;61.73
50518;BME280;37075;44.084;2.962;2024-02-21T02:22:28;98721.28;;;4.14;61.98
50518;BME280;37075;44.084;2.962;2024-02-21T02:25:15;98722.91;;;4.15;61.83
50518;BME280;37075;44.084;2.962;2024-02-21T02:28:03;98718.88;;;4.12;62.50
50518;BME280;37075;44.084;2.962;2024-02-21T02:30:49;98714.53;;;4.11;62.42
50518;BME280;37075;44.084;2.962;2024-02-21T02:33:35;98712.91;;;4.10;62.43
50518;BME280;37075;44.084;2.962;2024-02-21T02:36:21;98711.31;;;4.09;62.50
50518;BME280;37075;44.084;2.962;2024-02-21T02:39:07;98704.28;;;4.08;62.92
50518;BME280;37075;44.084;2.962;2024-02-21T02:41:54;98689.69;;;4.09;62.91
50518;BME280;37075;44.084;2.962;2024-02-21T02:44:40;98700.22;;;4.11;62.81
50518;BME280;37075;44.084;2.962;2024-02-21T02:47:26;98689.16;;;4.12;63.03
50518;BME280;37075;44.084;2.962;2024-02-21T02:50:12;98683.75;;;4.12;62.84
50518;BME280;37075;44.084;2.962;2024-02-21T02:52:59;98693.22;;;4.15;62.89
50518;BME280;37075;44.084;2.962;2024-02-21T02:55:44;98682.41;;;4.15;62.84
50518;BME280;37075;44.084;2.962;2024-02-21T02:58:32;98690.50;;;4.15;62.73
50518;BME280;37075;44.084;2.962;2024-02-21T03:01:19;98678.09;;;4.14;62.71
50518;BME280;37075;44.084;2.962;2024-02-21T03:04:05;98680.78;;;4.14;62.91
50518;BME280;37075;44.084;2.962;2024-02-21T03:06:51;98671.88;;;4.13;62.77
50518;BME280;37075;44.084;2.962;2024-02-21T03:09:37;98669.47;;;4.12;62.77
50518;BME280;37075;44.084;2.962;2024-02-21T03:12:23;98665.13;;;4.11;62.82
50518;BME280;37075;44.084;2.962;2024-02-21T03:15:14;98662.72;;;4.09;62.64
50518;BME280;37075;44.084;2.962;2024-02-21T03:17:59;98664.06;;;4.07;62.73
50518;BME280;37075;44.084;2.962;2024-02-21T03:20:45;98669.44;;;4.07;62.68
50518;BME280;37075;44.084;2.962;2024-02-21T03:23:31;98671.88;;;4.03;62.80
50518;BME280;37075;44.084;2.962;2024-02-21T03:26:17;98667.03;;;4.00;62.72
50518;BME280;37075;44.084;2.962;2024-02-21T03:29:03;98655.41;;;3.94;63.06
50518;BME280;37075;44.084;2.962;2024-02-21T03:31:50;98654.06;;;3.92;63.01
50518;BME280;37075;44.084;2.962;2024-02-21T03:34:36;98660.50;;;3.86;63.11
50518;BME280;37075;44.084;2.962;2024-02-21T03:37:22;98652.13;;;3.82;63.06
50518;BME280;37075;44.084;2.962;2024-02-21T03:40:09;98651.06;;;3.78;62.82
50518;BME280;37075;44.084;2.962;2024-02-21T03:42:55;98651.59;;;3.75;62.94
50518;BME280;37075;44.084;2.962;2024-02-21T03:45:41;98659.69;;;3.70;63.15
50518;BME280;37075;44.084;2.962;2024-02-21T03:48:28;98657.78;;;3.65;63.21
50518;BME280;37075;44.084;2.962;2024-02-21T03:51:14;98668.00;;;3.63;63.43
50518;BME280;37075;44.084;2.962;2024-02-21T03:54:00;98658.28;;;3.62;63.49
50518;BME280;37075;44.084;2.962;2024-02-21T03:56:46;98663.69;;;3.62;63.63
50518;BME280;37075;44.084;2.962;2024-02-21T03:59:33;98662.06;;;3.61;63.50
50518;BME280;37075;44.084;2.962;2024-02-21T04:02:19;98655.03;;;3.60;63.63
50518;BME280;37075;44.084;2.962;2024-02-21T04:05:07;98657.75;;;3.60;63.88
50518;BME280;37075;44.084;2.962;2024-02-21T04:07:55;98658.81;;;3.59;63.79
50518;BME280;37075;44.084;2.962;2024-02-21T04:10:41;98659.34;;;3.61;63.96
50518;BME280;37075;44.084;2.962;2024-02-21T04:13:27;98657.19;;;3.58;64.57
50518;BME280;37075;44.084;2.962;2024-02-21T04:16:13;98645.06;;;3.56;64.25
50518;BME280;37075;44.084;2.962;2024-02-21T04:18:59;98642.09;;;3.57;64.29
50518;BME280;37075;44.084;2.962;2024-02-21T04:21:47;98640.19;;;3.58;64.37
50518;BME280;37075;44.084;2.962;2024-02-21T04:24:34;98641.81;;;3.59;64.31
50518;BME280;37075;44.084;2.962;2024-02-21T04:27:19;98638.84;;;3.55;64.26
50518;BME280;37075;44.084;2.962;2024-02-21T04:30:06;98650.16;;;3.52;65.06
50518;BME280;37075;44.084;2.962;2024-02-21T04:32:54;98657.97;;;3.49;64.87
50518;BME280;37075;44.084;2.962;2024-02-21T04:35:40;98670.13;;;3.51;64.67
50518;BME280;37075;44.084;2.962;2024-02-21T04:38:28;98655.56;;;3.52;64.56
50518;BME280;37075;44.084;2.962;2024-02-21T04:41:14;98650.16;;;3.47;66.83
50518;BME280;37075;44.084;2.962;2024-02-21T04:44:00;98642.59;;;3.39;66.46
50518;BME280;37075;44.084;2.962;2024-02-21T04:46:48;98632.59;;;3.39;66.08
50518;BME280;37075;44.084;2.962;2024-02-21T04:49:34;98632.06;;;3.43;65.58
50518;BME280;37075;44.084;2.962;2024-02-21T04:52:20;98633.97;;;3.47;65.31
50518;BME280;37075;44.084;2.962;2024-02-21T04:55:08;98646.38;;;3.48;65.10
50518;BME280;37075;44.084;2.962;2024-02-21T04:57:54;98637.22;;;3.49;65.18
50518;BME280;37075;44.084;2.962;2024-02-21T05:00:40;98632.91;;;3.48;65.00
50518;BME280;37075;44.084;2.962;2024-02-21T05:03:26;98624.00;;;3.48;64.61
50518;BME280;37075;44.084;2.962;2024-02-21T05:06:11;98632.63;;;3.45;64.70
50518;BME280;37075;44.084;2.962;2024-02-21T05:08:57;98633.16;;;3.42;64.81
50518;BME280;37075;44.084;2.962;2024-02-21T05:11:44;98633.97;;;3.42;64.97
50518;BME280;37075;44.084;2.962;2024-02-21T05:14:30;98622.38;;;3.42;64.53
50518;BME280;37075;44.084;2.962;2024-02-21T05:17:16;98630.19;;;3.43;64.78
50518;BME280;37075;44.084;2.962;2024-02-21T05:20:03;98622.09;;;3.43;64.76
50518;BME280;37075;44.084;2.962;2024-02-21T05:22:50;98621.28;;;3.43;64.58
50518;BME280;37075;44.084;2.962;2024-02-21T05:25:36;98621.28;;;3.43;64.70
50518;BME280;37075;44.084;2.962;2024-02-21T05:28:23;98631.28;;;3.42;64.80
50518;BME280;37075;44.084;2.962;2024-02-21T05:31:09;98642.31;;;3.40;64.81
50518;BME280;37075;44.084;2.962;2024-02-21T05:33:55;98629.34;;;3.37;65.23
50518;BME280;37075;44.084;2.962;2024-02-21T05:36:42;98628.53;;;3.37;65.24
50518;BME280;37075;44.084;2.962;2024-02-21T05:39:28;98614.50;;;3.35;65.22
50518;BME280;37075;44.084;2.962;2024-02-21T05:42:14;98615.59;;;3.34;64.99
50518;BME280;37075;44.084;2.962;2024-02-21T05:45:02;98618.53;;;3.32;64.88
50518;BME280;37075;44.084;2.962;2024-02-21T05:47:48;98614.22;;;3.31;64.68
50518;BME280;37075;44.084;2.962;2024-02-21T05:50:34;98615.56;;;3.29;64.66
50518;BME280;37075;44.084;2.962;2024-02-21T05:53:20;98627.97;;;3.25;64.74
50518;BME280;37075;44.084;2.962;2024-02-21T05:56:10;98621.75;;;3.24;64.85
50518;BME280;37075;44.084;2.962;2024-02-21T05:58:55;98627.41;;;3.23;65.78
50518;BME280;37075;44.084;2.962;2024-02-21T06:01:43;98624.97;;;3.21;65.57
50518;BME280;37075;44.084;2.962;2024-02-21T06:04:29;98627.13;;;3.19;65.81
50518;BME280;37075;44.084;2.962;2024-02-21T06:07:15;98624.44;;;3.19;65.30
50518;BME280;37075;44.084;2.962;2024-02-21T06:10:02;98625.78;;;3.17;65.36
50518;BME280;37075;44.084;2.962;2024-02-21T06:12:48;98629.53;;;3.16;65.38
50518;BME280;37075;44.084;2.962;2024-02-21T06:15:34;98624.09;;;3.10;66.86
50518;BME280;37075;44.084;2.962;2024-02-21T06:18:21;98628.41;;;3.06;66.26
50518;BME280;37075;44.084;2.962;2024-02-21T06:21:07;98621.91;;;2.97;68.14
50518;BME280;37075;44.084;2.962;2024-02-21T06:23:53;98624.34;;;2.99;66.79
50518;BME280;37075;44.084;2.962;2024-02-21T06:26:39;98623.25;;;3.00;66.42
50518;BME280;37075;44.084;2.962;2024-02-21T06:29:26;98618.69;;;3.00;65.78
50518;BME280;37075;44.084;2.962;2024-02-21T06:32:11;98619.75;;;2.99;66.01
50518;BME280;37075;44.084;2.962;2024-02-21T06:34:59;98608.16;;;2.99;65.80
50518;BME280;37075;44.084;2.962;2024-02-21T06:37:46;98620.56;;;3.00;65.72
50518;BME280;37075;44.084;2.962;2024-02-21T06:40:35;98626.22;;;2.98;65.89
50518;BME280;37075;44.084;2.962;2024-02-21T06:43:24;98623.53;;;2.98;65.68
50518;BME280;37075;44.084;2.962;2024-02-21T06:46:10;98620.03;;;2.98;65.66
50518;BME280;37075;44.084;2.962;2024-02-21T06:48:56;98619.22;;;2.97;65.79
50518;BME280;37075;44.084;2.962;2024-02-21T06:51:44;98620.03;;;2.98;65.79
50518;BME280;37075;44.084;2.962;2024-02-21T06:54:30;98619.22;;;2.97;65.53
50518;BME280;37075;44.084;2.962;2024-02-21T06:57:16;98606.56;;;2.98;65.87
50518;BME280;37075;44.084;2.962;2024-02-21T07:00:02;98623.25;;;3.00;65.43
50518;BME280;37075;44.084;2.962;2024-02-21T07:02:48;98622.97;;;2.96;66.40
50518;BME280;37075;44.084;2.962;2024-02-21T07:05:34;98625.97;;;3.00;66.52
50518;BME280;37075;44.084;2.962;2024-02-21T07:08:21;98625.41;;;2.98;66.56
50518;BME280;37075;44.084;2.962;2024-02-21T07:11:08;98634.84;;;3.00;66.40
50518;BME280;37075;44.084;2.962;2024-02-21T07:13:53;98628.94;;;3.03;66.97
50518;BME280;37075;44.084;2.962;2024-02-21T07:16:39;98636.75;;;3.05;66.77
50518;BME280;37075;44.084;2.962;2024-02-21T07:19:25;98633.78;;;3.06;67.50
50518;BME280;37075;44.084;2.962;2024-02-21T07:22:11;98633.28;;;3.09;67.35
50518;BME280;37075;44.084;2.962;2024-02-21T07:24:58;98630.63;;;3.15;67.33
50518;BME280;37075;44.084;2.962;2024-02-21T07:27:44;98631.44;;;3.20;67.25
50518;BME280;37075;44.084;2.962;2024-02-21T07:30:30;98632.28;;;3.26;67.15
50518;BME280;37075;44.084;2.962;2024-02-21T07:33:16;98631.22;;;3.32;67.24
50518;BME280;37075;44.084;2.962;2024-02-21T07:36:06;98631.22;;;3.37;67.37
50518;BME280;37075;44.084;2.962;2024-02-21T07:38:52;98638.28;;;3.43;67.65
50518;BME280;37075;44.084;2.962;2024-02-21T07:41:39;98635.06;;;3.51;67.62
50518;BME280;37075;44.084;2.962;2024-02-21T07:44:28;98632.38;;;3.56;67.85
50518;BME280;37075;44.084;2.962;2024-02-21T07:47:13;98629.19;;;3.64;68.04
50518;BME280;37075;44.084;2.962;2024-02-21T07:49:59;98628.66;;;3.72;68.83
50518;BME280;37075;44.084;2.962;2024-02-21T07:52:45;98627.84;;;3.77;69.25
50518;BME280;37075;44.084;2.962;2024-02-21T07:55:31;98624.63;;;3.85;68.62
50518;BME280;37075;44.084;2.962;2024-02-21T07:58:18;98629.50;;;3.93;68.84
50518;BME280;37075;44.084;2.962;2024-02-21T08:01:04;98620.06;;;4.01;69.28
50518;BME280;37075;44.084;2.962;2024-02-21T08:03:50;98624.38;;;4.07;69.09
50518;BME280;37075;44.084;2.962;2024-02-21T08:06:36;98623.03;;;4.15;68.93
50518;BME280;37075;44.084;2.962;2024-02-21T08:09:22;98609.00;;;4.23;68.96
50518;BME280;37075;44.084;2.962;2024-02-21T08:12:08;98614.13;;;4.34;69.14
50518;BME280;37075;44.084;2.962;2024-02-21T08:14:56;98620.34;;;4.45;68.89
50518;BME280;37075;44.084;2.962;2024-02-21T08:17:41;98617.09;;;4.53;69.25
50518;BME280;37075;44.084;2.962;2024-02-21T08:20:27;98611.66;;;4.63;69.10
50518;BME280;37075;44.084;2.962;2024-02-21T08:23:15;98598.94;;;4.74;68.96
50518;BME280;37075;44.084;2.962;2024-02-21T08:26:03;98602.41;;;4.85;69.16
50518;BME280;37075;44.084;2.962;2024-02-21T08:28:49;98610.78;;;4.99;69.31
50518;BME280;37075;44.084;2.962;2024-02-21T08:31:37;98600.19;;;5.07;69.23
50518;BME280;37075;44.084;2.962;2024-02-21T08:34:23;98590.66;;;5.20;69.16
50518;BME280;37075;44.084;2.962;2024-02-21T08:37:08;98594.97;;;5.31;69.10
50518;BME280;37075;44.084;2.962;2024-02-21T08:39:55;98593.81;;;5.42;69.02
50518;BME280;37075;44.084;2.962;2024-02-21T08:42:41;98589.69;;;5.55;69.00
50518;BME280;37075;44.084;2.962;2024-02-21T08:45:27;98583.94;;;5.67;69.05
50518;BME280;37075;44.084;2.962;2024-02-21T08:48:14;98585.50;;;5.78;69.04
50518;BME280;37075;44.084;2.962;2024-02-21T08:51:00;98586.78;;;5.91;69.08
50518;BME280;37075;44.084;2.962;2024-02-21T08:53:47;98581.84;;;5.98;69.10
50518;BME280;37075;44.084;2.962;2024-02-21T08:56:33;98576.66;;;6.06;68.99
50518;BME280;37075;44.084;2.962;2024-02-21T08:59:20;98561.66;;;6.19;69.02
50518;BME280;37075;44.084;2.962;2024-02-21T09:02:06;98575.38;;;6.33;68.92
50518;BME280;37075;44.084;2.962;2024-02-21T09:04:55;98573.34;;;6.43;68.78
50518;BME280;37075;44.084;2.962;2024-02-21T09:07:41;98576.50;;;6.56;68.80
50518;BME280;37075;44.084;2.962;2024-02-21T09:10:27;98566.34;;;6.66;68.63
50518;BME280;37075;44.084;2.962;2024-02-21T09:13:13;98562.72;;;6.76;68.53
50518;BME280;37075;44.084;2.962;2024-02-21T09:15:58;98558.22;;;6.90;68.29
50518;BME280;37075;44.084;2.962;2024-02-21T09:18:44;98556.19;;;7.01;67.95
50518;BME280;37075;44.084;2.962;2024-02-21T09:21:32;98550.66;;;7.11;67.64
50518;BME280;37075;44.084;2.962;2024-02-21T09:24:18;98558.59;;;7.26;67.60
50518;BME280;37075;44.084;2.962;2024-02-21T09:27:04;98549.25;;;7.37;67.50
50518;BME280;37075;44.084;2.962;2024-02-21T09:29:51;98547.09;;;7.53;67.44
50518;BME280;37075;44.084;2.962;2024-02-21T09:32:37;98550.19;;;7.65;67.20
50518;BME280;37075;44.084;2.962;2024-02-21T09:35:24;98544.91;;;7.74;66.72
50518;BME280;37075;44.084;2.962;2024-02-21T09:38:12;98542.56;;;7.86;66.41
50518;BME280;37075;44.084;2.962;2024-02-21T09:40:59;98539.16;;;7.94;66.05
50518;BME280;37075;44.084;2.962;2024-02-21T09:43:46;98540.09;;;8.03;65.64
50518;BME280;37075;44.084;2.962;2024-02-21T09:46:42;98537.63;;;8.07;65.58
50518;BME280;37075;44.084;2.962;2024-02-21T09:49:31;98535.63;;;8.13;64.90
50518;BME280;37075;44.084;2.962;2024-02-21T09:52:19;98544.69;;;8.22;64.83
50518;BME280;37075;44.084;2.962;2024-02-21T09:55:08;98537.25;;;8.27;63.38
50518;BME280;37075;44.084;2.962;2024-02-21T09:57:55;98532.50;;;8.38;63.97
50518;BME280;37075;44.084;2.962;2024-02-21T10:00:59;98528.66;;;8.53;63.23
50518;BME280;37075;44.084;2.962;2024-02-21T10:03:45;98538.97;;;8.70;63.57
50518;BME280;37075;44.084;2.962;2024-02-21T10:06:32;98535.44;;;8.83;63.53
50518;BME280;37075;44.084;2.962;2024-02-21T10:09:22;98535.66;;;9.00;63.30
50518;BME280;37075;44.084;2.962;2024-02-21T10:12:11;98520.44;;;9.13;62.88
50518;BME280;37075;44.084;2.962;2024-02-21T10:15:01;98520.41;;;9.26;62.75
50518;BME280;37075;44.084;2.962;2024-02-21T10:17:47;98531.06;;;9.37;62.23
50518;BME280;37075;44.084;2.962;2024-02-21T10:20:33;98519.16;;;9.46;61.97
50518;BME280;37075;44.084;2.962;2024-02-21T10:23:20;98517.00;;;9.57;62.01
50518;BME280;37075;44.084;2.962;2024-02-21T10:26:07;98510.53;;;9.67;61.62
50518;BME280;37075;44.084;2.962;2024-02-21T10:28:54;98513.81;;;9.77;61.23
50518;BME280;37075;44.084;2.962;2024-02-21T10:31:40;98519.53;;;9.89;60.46
50518;BME280;37075;44.084;2.962;2024-02-21T10:34:26;98515.31;;;10.06;60.89
50518;BME280;37075;44.084;2.962;2024-02-21T10:37:12;98511.44;;;10.21;60.62
50518;BME280;37075;44.084;2.962;2024-02-21T10:39:58;98493.22;;;10.38;60.48
50518;BME280;37075;44.084;2.962;2024-02-21T10:42:46;98489.63;;;10.52;60.05
50518;BME280;37075;44.084;2.962;2024-02-21T10:45:35;98492.13;;;10.70;60.13
50518;BME280;37075;44.084;2.962;2024-02-21T10:48:26;98496.81;;;10.87;59.77
50518;BME280;37075;44.084;2.962;2024-02-21T10:51:16;98490.44;;;11.00;59.36
50518;BME280;37075;44.084;2.962;2024-02-21T10:54:13;98492.72;;;11.16;58.73
50518;BME280;37075;44.084;2.962;2024-02-21T10:57:07;98484.38;;;11.29;58.68
50518;BME280;37075;44.084;2.962;2024-02-21T10:59:56;98487.97;;;11.47;58.43
50518;BME280;37075;44.084;2.962;2024-02-21T11:02:46;98479.44;;;11.57;57.84
50518;BME280;37075;44.084;2.962;2024-02-21T11:05:34;98477.81;;;11.65;57.27
50518;BME280;37075;44.084;2.962;2024-02-21T11:08:20;98472.03;;;11.75;57.12
50518;BME280;37075;44.084;2.962;2024-02-21T11:11:06;98474.13;;;11.87;57.31
50518;BME280;37075;44.084;2.962;2024-02-21T11:13:52;98465.59;;;11.97;57.03
50518;BME280;37075;44.084;2.962;2024-02-21T11:16:39;98467.84;;;12.03;56.55
50518;BME280;37075;44.084;2.962;2024-02-21T11:19:27;98456.56;;;12.14;56.52
50518;BME280;37075;44.084;2.962;2024-02-21T11:22:16;98460.72;;;12.20;55.34
50518;BME280;37075;44.084;2.962;2024-02-21T11:25:09;98461.84;;;12.27;55.15
50518;BME280;37075;44.084;2.962;2024-02-21T11:28:00;98444.28;;;12.37;55.39
50518;BME280;37075;44.084;2.962;2024-02-21T11:30:47;98442.94;;;12.52;55.52
50518;BME280;37075;44.084;2.962;2024-02-21T11:33:39;98435.75;;;12.68;54.98
50518;BME280;37075;44.084;2.962;2024-02-21T11:36:26;98444.09;;;12.80;54.60
50518;BME280;37075;44.084;2.962;2024-02-21T11:39:13;98426.88;;;13.01;54.81
50518;BME280;37075;44.084;2.962;2024-02-21T11:42:03;98422.25;;;13.22;54.54
50518;BME280;37075;44.084;2.962;2024-02-21T11:44:50;98414.84;;;13.43;54.27
50518;BME280;37075;44.084;2.962;2024-02-21T11:47:37;98407.28;;;13.61;53.37
50518;BME280;37075;44.084;2.962;2024-02-21T11:50:27;98401.31;;;13.80;52.86
50518;BME280;37075;44.084;2.962;2024-02-21T11:53:14;98390.13;;;13.97;52.98
50518;BME280;37075;44.084;2.962;2024-02-21T11:56:01;98383.34;;;14.15;52.43
50518;BME280;37075;44.084;2.962;2024-02-21T11:58:47;98367.81;;;14.32;52.78
50518;BME280;37075;44.084;2.962;2024-02-21T12:01:33;98362.00;;;14.45;51.89
50518;BME280;37075;44.084;2.962;2024-02-21T12:04:20;98367.81;;;14.56;51.23
50518;BME280;37075;44.084;2.962;2024-02-21T12:07:08;98367.84;;;14.68;51.13
50518;BME280;37075;44.084;2.962;2024-02-21T12:09:58;98364.84;;;14.73;49.74
50518;BME280;37075;44.084;2.962;2024-02-21T12:12:45;98363.47;;;14.79;49.86
50518;BME280;37075;44.084;2.962;2024-02-21T12:15:31;98350.75;;;14.87;49.99
50518;BME280;37075;44.084;2.962;2024-02-21T12:18:17;98340.78;;;14.95;49.42
50518;BME280;37075;44.084;2.962;2024-02-21T12:21:04;98336.63;;;15.01;48.29
50518;BME280;37075;44.084;2.962;2024-02-21T12:23:50;98340.53;;;15.12;47.98
50518;BME280;37075;44.084;2.962;2024-02-21T12:26:37;98329.53;;;15.12;48.19
50518;BME280;37075;44.084;2.962;2024-02-21T12:29:24;98320.59;;;15.15;47.88
50518;BME280;37075;44.084;2.962;2024-02-21T12:32:10;98307.66;;;15.16;47.28
50518;BME280;37075;44.084;2.962;2024-02-21T12:34:56;98299.06;;;15.17;45.39
50518;BME280;37075;44.084;2.962;2024-02-21T12:37:42;98305.00;;;15.19;44.17
50518;BME280;37075;44.084;2.962;2024-02-21T12:40:28;98301.75;;;15.29;42.97
50518;BME280;37075;44.084;2.962;2024-02-21T12:43:18;98297.00;;;15.42;44.37
50518;BME280;37075;44.084;2.962;2024-02-21T12:46:05;98289.03;;;15.53;44.16
50518;BME280;37075;44.084;2.962;2024-02-21T12:48:52;98274.81;;;15.63;44.07
50518;BME280;37075;44.084;2.962;2024-02-21T12:51:38;98266.03;;;15.73;43.68
50518;BME280;37075;44.084;2.962;2024-02-21T12:54:26;98272.59;;;15.84;43.24
50518;BME280;37075;44.084;2.962;2024-02-21T12:57:12;98267.28;;;15.91;41.65
50518;BME280;37075;44.084;2.962;2024-02-21T13:00:00;98258.31;;;15.94;39.75
50518;BME280;37075;44.084;2.962;2024-02-21T13:02:47;98251.84;;;16.02;40.78
50518;BME280;37075;44.084;2.962;2024-02-21T13:05:33;98251.91;;;16.06;40.63
50518;BME280;37075;44.084;2.962;2024-02-21T13:08:19;98244.38;;;16.19;37.94
50518;BME280;37075;44.084;2.962;2024-02-21T13:11:07;98234.81;;;16.32;37.38
50518;BME280;37075;44.084;2.962;2024-02-21T13:13:52;98226.81;;;16.43;38.86
50518;BME280;37075;44.084;2.962;2024-02-21T13:16:40;98213.88;;;16.62;39.04
50518;BME280;37075;44.084;2.962;2024-02-21T13:19:26;98204.06;;;16.81;39.17
50518;BME280;37075;44.084;2.962;2024-02-21T13:22:12;98197.81;;;17.03;38.71
50518;BME280;37075;44.084;2.962;2024-02-21T13:24:58;98180.88;;;17.24;38.41
50518;BME280;37075;44.084;2.962;2024-02-21T13:27:44;98184.81;;;17.46;38.26
50518;BME280;37075;44.084;2.962;2024-02-21T13:30:30;98173.00;;;17.68;38.20
50518;BME280;37075;44.084;2.962;2024-02-21T13:33:17;98164.44;;;18.00;38.21
50518;BME280;37075;44.084;2.962;2024-02-21T13:36:04;98163.31;;;18.31;37.78
50518;BME280;37075;44.084;2.962;2024-02-21T13:38:50;98159.81;;;18.64;37.43
50518;BME280;37075;44.084;2.962;2024-02-21T13:41:37;98159.44;;;18.99;37.36
50518;BME280;37075;44.084;2.962;2024-02-21T13:44:23;98147.03;;;19.23;35.51
50518;BME280;37075;44.084;2.962;2024-02-21T13:47:10;98144.13;;;19.49;34.75
50518;BME280;37075;44.084;2.962;2024-02-21T13:49:59;98146.81;;;19.79;34.54
50518;BME280;37075;44.084;2.962;2024-02-21T13:52:45;98136.69;;;20.05;32.95
50518;BME280;37075;44.084;2.962;2024-02-21T13:55:31;98129.31;;;20.30;33.66
50518;BME280;37075;44.084;2.962;2024-02-21T13:58:17;98117.97;;;20.53;32.55
50518;BME280;37075;44.084;2.962;2024-02-21T14:01:03;98109.38;;;20.86;32.59
50518;BME280;37075;44.084;2.962;2024-02-21T14:03:49;98111.03;;;21.09;32.03
50518;BME280;37075;44.084;2.962;2024-02-21T14:06:37;98106.69;;;21.33;31.87
50518;BME280;37075;44.084;2.962;2024-02-21T14:09:27;98090.06;;;21.50;31.88
50518;BME280;37075;44.084;2.962;2024-02-21T14:12:15;98085.72;;;21.67;30.81
50518;BME280;37075;44.084;2.962;2024-02-21T14:15:05;98080.91;;;21.78;30.30
50518;BME280;37075;44.084;2.962;2024-02-21T14:17:51;98083.69;;;21.96;30.19
50518;BME280;37075;44.084;2.962;2024-02-21T14:20:37;98075.75;;;22.12;29.46
50518;BME280;37075;44.084;2.962;2024-02-21T14:23:26;98074.88;;;22.26;29.32
50518;BME280;37075;44.084;2.962;2024-02-21T14:26:12;98066.91;;;22.39;29.04
50518;BME280;37075;44.084;2.962;2024-02-21T14:28:59;98068.81;;;22.56;28.77
50518;BME280;37075;44.084;2.962;2024-02-21T14:31:45;98068.72;;;22.81;29.05
50518;BME280;37075;44.084;2.962;2024-02-21T14:34:31;98064.22;;;23.01;29.40
50518;BME280;37075;44.084;2.962;2024-02-21T14:37:17;98059.69;;;23.22;29.67
50518;BME280;37075;44.084;2.962;2024-02-21T14:40:06;98059.13;;;23.45;29.41
50518;BME280;37075;44.084;2.962;2024-02-21T14:42:52;98052.16;;;23.67;28.71
50518;BME280;37075;44.084;2.962;2024-02-21T14:45:38;98055.16;;;23.87;28.21
50518;BME280;37075;44.084;2.962;2024-02-21T14:48:24;98046.63;;;24.05;27.94
50518;BME280;37075;44.084;2.962;2024-02-21T14:51:10;98044.84;;;24.21;26.83